Airfield :
LOGIN :

Register | Disclaimer

   EN    FR    IT 

 










Legend :    VFR   Marginal VFR   IFR   Intensive IFR   Very Intensive IFR
Visi :
Ceiling :
>= 8 km
>= 3000ft
5 to 8 km
1000 to 3000 ft
1500m to 5 km
500 to 1000 ft
800 to 1500m
200 to 500 ft
< 800m
< 200 ft
Symbols :   Thunderstorms  Fog  Heavy snow  Heavy precipitations  Wind > 20 kt
SIGMETs :     Misc.  Thunderstorms  Icing  Turbulence  Mountain Waves  Volcanic Ashes






- Airport Elevation : 768 ft
- IATA code : MXP


LIMC - Milano Malpensa

CURRENT METAR :
  • 281920Z 10017KT 9999 -TSRA SCT025CB BKN080 19/14 Q1007 NOSIG

EXPIRED METARs :
  • 281850Z 10020KT 9999 -RA SCT025CB BKN095 20/14 Q1006 RETS TEMPO 4000 TSRA
  • 281820Z 11018KT 8000 -TSRA FEW030CB BKN100 21/15 Q1006 NOSIG
  • 281750Z 10020KT 9999 -RA VCTS FEW030CB BKN100 22/15 Q1006 TEMPO 4000 TSRA
  • 281720Z 11022KT 9999 VCSH FEW040TCU SCT100 24/16 Q1005 NOSIG
  • 281650Z 11019G29KT 9999 VCSH FEW040TCU SCT100 26/16 Q1004 NOSIG

TAF TAF LIMC
Valid from the 28 at 18:00 until the 30 at 00:00 UTC


281700Z 2818/2924 11010KT 9999 SCT020
TEMPO 2818/2902 12015G25KT 4000 TSRA
BECMG 2916/2918 VRB05KT



MET'MAP, your aeronautical weather chart ! - Copyright ORBIFLY December 2007 - Disclaimer

ORBIFLY MET'MAP TEAM :

Programming & Development : Alexandra Zaïnal
Original concept : Baudouin d'Aumeries
Technical & hardware support : Manuel Goepfert
Assistance : Marc-Olivier Méhu

Contact : metmap@orbifly.com




SOURCES & CREDITS :

   NOAA